sensor_id;sensor_type;location;lat;lon;timestamp;P1;durP1;ratioP1;P2;durP2;ratioP2
62258;SDS011;48241;48.824;10.102;2023-08-20T00:01:05;12.07;;;7.93;;
62258;SDS011;48241;48.824;10.102;2023-08-20T00:03:32;10.02;;;8.43;;
62258;SDS011;48241;48.824;10.102;2023-08-20T00:05:58;9.43;;;8.48;;
62258;SDS011;48241;48.824;10.102;2023-08-20T00:08:24;11.15;;;8.13;;
62258;SDS011;48241;48.824;10.102;2023-08-20T00:10:49;10.23;;;8.57;;
62258;SDS011;48241;48.824;10.102;2023-08-20T00:13:15;12.52;;;8.60;;
62258;SDS011;48241;48.824;10.102;2023-08-20T00:15:41;10.18;;;8.82;;
62258;SDS011;48241;48.824;10.102;2023-08-20T00:18:07;10.10;;;8.52;;
62258;SDS011;48241;48.824;10.102;2023-08-20T00:20:33;12.32;;;8.32;;
62258;SDS011;48241;48.824;10.102;2023-08-20T00:22:58;13.10;;;8.35;;
62258;SDS011;48241;48.824;10.102;2023-08-20T00:25:24;10.85;;;8.50;;
62258;SDS011;48241;48.824;10.102;2023-08-20T00:27:50;11.73;;;8.30;;
62258;SDS011;48241;48.824;10.102;2023-08-20T00:30:16;10.13;;;8.77;;
62258;SDS011;48241;48.824;10.102;2023-08-20T00:32:41;12.18;;;9.13;;
62258;SDS011;48241;48.824;10.102;2023-08-20T00:35:07;12.82;;;9.45;;
62258;SDS011;48241;48.824;10.102;2023-08-20T00:37:33;9.90;;;8.68;;
62258;SDS011;48241;48.824;10.102;2023-08-20T00:39:59;12.80;;;9.63;;
62258;SDS011;48241;48.824;10.102;2023-08-20T00:42:24;10.85;;;8.77;;
62258;SDS011;48241;48.824;10.102;2023-08-20T00:44:51;11.93;;;9.48;;
62258;SDS011;48241;48.824;10.102;2023-08-20T00:47:17;11.40;;;9.75;;
62258;SDS011;48241;48.824;10.102;2023-08-20T00:49:43;12.75;;;9.60;;
62258;SDS011;48241;48.824;10.102;2023-08-20T00:52:11;11.45;;;10.25;;
62258;SDS011;48241;48.824;10.102;2023-08-20T00:54:39;11.27;;;9.82;;
62258;SDS011;48241;48.824;10.102;2023-08-20T00:57:06;11.00;;;9.90;;
62258;SDS011;48241;48.824;10.102;2023-08-20T00:59:32;11.63;;;9.75;;
62258;SDS011;48241;48.824;10.102;2023-08-20T01:01:57;12.15;;;9.60;;
62258;SDS011;48241;48.824;10.102;2023-08-20T01:04:23;11.05;;;10.02;;
62258;SDS011;48241;48.824;10.102;2023-08-20T01:07:08;14.20;;;10.07;;
62258;SDS011;48241;48.824;10.102;2023-08-20T01:12:33;13.82;;;10.13;;
62258;SDS011;48241;48.824;10.102;2023-08-20T01:14:59;12.02;;;10.25;;
62258;SDS011;48241;48.824;10.102;2023-08-20T01:17:25;13.07;;;9.82;;
62258;SDS011;48241;48.824;10.102;2023-08-20T01:19:50;13.00;;;9.65;;
62258;SDS011;48241;48.824;10.102;2023-08-20T01:22:21;12.60;;;9.45;;
62258;SDS011;48241;48.824;10.102;2023-08-20T01:30:48;10.77;;;9.68;;
62258;SDS011;48241;48.824;10.102;2023-08-20T01:33:14;10.48;;;9.35;;
62258;SDS011;48241;48.824;10.102;2023-08-20T01:35:40;12.48;;;9.15;;
62258;SDS011;48241;48.824;10.102;2023-08-20T01:38:06;14.77;;;9.48;;
62258;SDS011;48241;48.824;10.102;2023-08-20T01:40:32;10.25;;;8.85;;
62258;SDS011;48241;48.824;10.102;2023-08-20T01:42:58;13.63;;;9.82;;
62258;SDS011;48241;48.824;10.102;2023-08-20T01:45:23;13.50;;;9.70;;
62258;SDS011;48241;48.824;10.102;2023-08-20T01:47:49;13.50;;;9.80;;
62258;SDS011;48241;48.824;10.102;2023-08-20T01:50:15;11.85;;;9.68;;
62258;SDS011;48241;48.824;10.102;2023-08-20T01:52:40;14.15;;;10.35;;
62258;SDS011;48241;48.824;10.102;2023-08-20T01:55:06;11.60;;;9.68;;
62258;SDS011;48241;48.824;10.102;2023-08-20T01:57:32;12.07;;;9.88;;
62258;SDS011;48241;48.824;10.102;2023-08-20T01:59:58;11.48;;;9.70;;
62258;SDS011;48241;48.824;10.102;2023-08-20T02:02:24;12.88;;;9.85;;
62258;SDS011;48241;48.824;10.102;2023-08-20T02:04:49;11.10;;;9.60;;
62258;SDS011;48241;48.824;10.102;2023-08-20T02:07:15;12.38;;;10.02;;
62258;SDS011;48241;48.824;10.102;2023-08-20T02:09:41;10.43;;;9.32;;
62258;SDS011;48241;48.824;10.102;2023-08-20T02:12:06;10.82;;;9.80;;
62258;SDS011;48241;48.824;10.102;2023-08-20T02:14:32;11.30;;;10.30;;
62258;SDS011;48241;48.824;10.102;2023-08-20T02:17:00;15.20;;;9.70;;
62258;SDS011;48241;48.824;10.102;2023-08-20T02:19:26;10.55;;;9.45;;
62258;SDS011;48241;48.824;10.102;2023-08-20T02:21:52;12.35;;;10.23;;
62258;SDS011;48241;48.824;10.102;2023-08-20T02:24:18;13.43;;;10.15;;
62258;SDS011;48241;48.824;10.102;2023-08-20T02:26:44;13.20;;;10.13;;
62258;SDS011;48241;48.824;10.102;2023-08-20T02:29:09;11.55;;;10.10;;
62258;SDS011;48241;48.824;10.102;2023-08-20T02:31:35;13.38;;;10.52;;
62258;SDS011;48241;48.824;10.102;2023-08-20T02:34:01;13.18;;;10.95;;
62258;SDS011;48241;48.824;10.102;2023-08-20T02:36:27;12.23;;;10.93;;
62258;SDS011;48241;48.824;10.102;2023-08-20T02:38:52;12.43;;;10.75;;
62258;SDS011;48241;48.824;10.102;2023-08-20T02:41:18;11.75;;;10.65;;
62258;SDS011;48241;48.824;10.102;2023-08-20T02:43:44;15.50;;;10.85;;
62258;SDS011;48241;48.824;10.102;2023-08-20T02:46:10;11.93;;;10.82;;
62258;SDS011;48241;48.824;10.102;2023-08-20T02:48:35;12.77;;;11.48;;
62258;SDS011;48241;48.824;10.102;2023-08-20T02:51:01;11.77;;;10.38;;
62258;SDS011;48241;48.824;10.102;2023-08-20T02:53:27;12.30;;;10.95;;
62258;SDS011;48241;48.824;10.102;2023-08-20T02:55:53;13.80;;;10.98;;
62258;SDS011;48241;48.824;10.102;2023-08-20T02:58:18;14.60;;;11.20;;
62258;SDS011;48241;48.824;10.102;2023-08-20T03:00:44;12.32;;;11.02;;
62258;SDS011;48241;48.824;10.102;2023-08-20T03:03:10;16.05;;;10.48;;
62258;SDS011;48241;48.824;10.102;2023-08-20T03:05:36;14.75;;;11.32;;
62258;SDS011;48241;48.824;10.102;2023-08-20T03:08:02;13.18;;;11.23;;
62258;SDS011;48241;48.824;10.102;2023-08-20T03:10:31;13.85;;;10.70;;
62258;SDS011;48241;48.824;10.102;2023-08-20T03:12:59;13.48;;;11.85;;
62258;SDS011;48241;48.824;10.102;2023-08-20T03:15:26;12.88;;;11.13;;
62258;SDS011;48241;48.824;10.102;2023-08-20T03:17:52;13.20;;;11.80;;
62258;SDS011;48241;48.824;10.102;2023-08-20T03:20:17;14.02;;;11.75;;
62258;SDS011;48241;48.824;10.102;2023-08-20T03:22:43;15.43;;;11.55;;
62258;SDS011;48241;48.824;10.102;2023-08-20T03:25:09;14.98;;;12.15;;
62258;SDS011;48241;48.824;10.102;2023-08-20T03:27:34;12.70;;;11.40;;
62258;SDS011;48241;48.824;10.102;2023-08-20T03:30:00;14.68;;;12.10;;
62258;SDS011;48241;48.824;10.102;2023-08-20T03:32:26;13.75;;;12.18;;
62258;SDS011;48241;48.824;10.102;2023-08-20T03:34:51;14.50;;;12.13;;
62258;SDS011;48241;48.824;10.102;2023-08-20T03:37:19;13.73;;;11.93;;
62258;SDS011;48241;48.824;10.102;2023-08-20T03:39:44;15.13;;;12.07;;
62258;SDS011;48241;48.824;10.102;2023-08-20T03:42:10;15.10;;;11.88;;
62258;SDS011;48241;48.824;10.102;2023-08-20T03:44:35;15.82;;;11.93;;
62258;SDS011;48241;48.824;10.102;2023-08-20T03:47:01;14.75;;;11.63;;
62258;SDS011;48241;48.824;10.102;2023-08-20T03:49:27;13.52;;;11.98;;
62258;SDS011;48241;48.824;10.102;2023-08-20T03:51:52;17.55;;;12.45;;
62258;SDS011;48241;48.824;10.102;2023-08-20T03:54:18;13.43;;;12.23;;
62258;SDS011;48241;48.824;10.102;2023-08-20T03:56:43;14.70;;;12.48;;
62258;SDS011;48241;48.824;10.102;2023-08-20T03:59:09;15.85;;;11.45;;
62258;SDS011;48241;48.824;10.102;2023-08-20T04:01:34;14.00;;;12.55;;
62258;SDS011;48241;48.824;10.102;2023-08-20T04:04:02;13.70;;;12.20;;
62258;SDS011;48241;48.824;10.102;2023-08-20T04:06:28;15.60;;;12.48;;
62258;SDS011;48241;48.824;10.102;2023-08-20T04:08:54;14.23;;;12.82;;
62258;SDS011;48241;48.824;10.102;2023-08-20T04:11:19;14.23;;;12.65;;
62258;SDS011;48241;48.824;10.102;2023-08-20T04:13:45;14.55;;;12.95;;
62258;SDS011;48241;48.824;10.102;2023-08-20T04:16:10;15.65;;;12.75;;
62258;SDS011;48241;48.824;10.102;2023-08-20T04:18:36;15.07;;;13.40;;
62258;SDS011;48241;48.824;10.102;2023-08-20T04:21:02;15.80;;;12.90;;
62258;SDS011;48241;48.824;10.102;2023-08-20T04:23:27;16.30;;;13.00;;
62258;SDS011;48241;48.824;10.102;2023-08-20T04:25:53;15.55;;;12.73;;
62258;SDS011;48241;48.824;10.102;2023-08-20T04:28:18;13.32;;;11.93;;
62258;SDS011;48241;48.824;10.102;2023-08-20T04:30:44;12.85;;;11.60;;
62258;SDS011;48241;48.824;10.102;2023-08-20T04:33:10;16.30;;;13.00;;
62258;SDS011;48241;48.824;10.102;2023-08-20T04:35:35;14.73;;;12.15;;
62258;SDS011;48241;48.824;10.102;2023-08-20T04:38:01;14.73;;;11.75;;
62258;SDS011;48241;48.824;10.102;2023-08-20T04:40:27;13.55;;;12.15;;
62258;SDS011;48241;48.824;10.102;2023-08-20T04:42:53;15.48;;;12.20;;
62258;SDS011;48241;48.824;10.102;2023-08-20T04:45:18;15.30;;;12.25;;
62258;SDS011;48241;48.824;10.102;2023-08-20T04:47:45;13.65;;;12.05;;
62258;SDS011;48241;48.824;10.102;2023-08-20T04:50:11;12.85;;;11.63;;
62258;SDS011;48241;48.824;10.102;2023-08-20T04:52:37;13.00;;;10.60;;
62258;SDS011;48241;48.824;10.102;2023-08-20T04:55:02;11.70;;;10.60;;
62258;SDS011;48241;48.824;10.102;2023-08-20T04:57:28;13.68;;;11.98;;
62258;SDS011;48241;48.824;10.102;2023-08-20T04:59:54;14.75;;;12.10;;
62258;SDS011;48241;48.824;10.102;2023-08-20T05:02:19;14.55;;;12.27;;
62258;SDS011;48241;48.824;10.102;2023-08-20T05:04:45;13.00;;;11.70;;
62258;SDS011;48241;48.824;10.102;2023-08-20T05:07:11;12.95;;;11.55;;
62258;SDS011;48241;48.824;10.102;2023-08-20T05:09:36;13.10;;;11.73;;
62258;SDS011;48241;48.824;10.102;2023-08-20T05:12:02;12.80;;;11.52;;
62258;SDS011;48241;48.824;10.102;2023-08-20T05:14:28;11.93;;;10.48;;
62258;SDS011;48241;48.824;10.102;2023-08-20T05:16:55;12.30;;;10.50;;
62258;SDS011;48241;48.824;10.102;2023-08-20T05:19:20;11.38;;;9.68;;
62258;SDS011;48241;48.824;10.102;2023-08-20T05:21:46;11.25;;;10.00;;
62258;SDS011;48241;48.824;10.102;2023-08-20T05:24:12;10.40;;;9.45;;
62258;SDS011;48241;48.824;10.102;2023-08-20T05:26:38;13.38;;;9.88;;
62258;SDS011;48241;48.824;10.102;2023-08-20T05:29:03;11.63;;;9.55;;
62258;SDS011;48241;48.824;10.102;2023-08-20T05:31:29;12.00;;;10.68;;
62258;SDS011;48241;48.824;10.102;2023-08-20T05:33:54;11.95;;;10.65;;
62258;SDS011;48241;48.824;10.102;2023-08-20T05:36:20;11.45;;;10.30;;
62258;SDS011;48241;48.824;10.102;2023-08-20T05:38:45;12.82;;;10.95;;
62258;SDS011;48241;48.824;10.102;2023-08-20T05:41:11;12.95;;;11.07;;
62258;SDS011;48241;48.824;10.102;2023-08-20T05:43:36;12.00;;;10.60;;
62258;SDS011;48241;48.824;10.102;2023-08-20T05:46:02;12.32;;;10.10;;
62258;SDS011;48241;48.824;10.102;2023-08-20T05:48:30;10.93;;;9.60;;
62258;SDS011;48241;48.824;10.102;2023-08-20T05:50:56;12.02;;;9.25;;
62258;SDS011;48241;48.824;10.102;2023-08-20T05:53:22;11.23;;;10.05;;
62258;SDS011;48241;48.824;10.102;2023-08-20T05:55:47;10.50;;;9.40;;
62258;SDS011;48241;48.824;10.102;2023-08-20T05:58:13;10.48;;;9.40;;
62258;SDS011;48241;48.824;10.102;2023-08-20T06:00:39;10.75;;;9.77;;
62258;SDS011;48241;48.824;10.102;2023-08-20T06:03:04;10.43;;;9.30;;
62258;SDS011;48241;48.824;10.102;2023-08-20T06:05:32;11.18;;;9.07;;
62258;SDS011;48241;48.824;10.102;2023-08-20T06:07:58;10.48;;;9.30;;
62258;SDS011;48241;48.824;10.102;2023-08-20T06:10:23;10.38;;;8.63;;
62258;SDS011;48241;48.824;10.102;2023-08-20T06:12:49;10.40;;;8.50;;
62258;SDS011;48241;48.824;10.102;2023-08-20T06:15:15;12.75;;;9.07;;
62258;SDS011;48241;48.824;10.102;2023-08-20T06:17:40;8.55;;;7.68;;
62258;SDS011;48241;48.824;10.102;2023-08-20T06:20:06;8.10;;;7.30;;
62258;SDS011;48241;48.824;10.102;2023-08-20T06:22:33;7.97;;;6.78;;
62258;SDS011;48241;48.824;10.102;2023-08-20T06:24:59;8.68;;;6.28;;
62258;SDS011;48241;48.824;10.102;2023-08-20T06:27:25;7.50;;;6.00;;
62258;SDS011;48241;48.824;10.102;2023-08-20T06:29:53;7.57;;;5.80;;
62258;SDS011;48241;48.824;10.102;2023-08-20T06:32:18;6.28;;;5.47;;
62258;SDS011;48241;48.824;10.102;2023-08-20T06:34:44;6.18;;;5.57;;
62258;SDS011;48241;48.824;10.102;2023-08-20T06:37:10;7.55;;;4.95;;
62258;SDS011;48241;48.824;10.102;2023-08-20T06:39:35;9.65;;;5.60;;
62258;SDS011;48241;48.824;10.102;2023-08-20T06:42:01;6.80;;;6.15;;
62258;SDS011;48241;48.824;10.102;2023-08-20T06:44:35;9.73;;;5.72;;
62258;SDS011;48241;48.824;10.102;2023-08-20T06:47:07;8.02;;;6.25;;
62258;SDS011;48241;48.824;10.102;2023-08-20T06:49:36;7.22;;;6.25;;
62258;SDS011;48241;48.824;10.102;2023-08-20T06:52:01;8.80;;;6.18;;
62258;SDS011;48241;48.824;10.102;2023-08-20T06:54:27;7.88;;;6.22;;
62258;SDS011;48241;48.824;10.102;2023-08-20T06:56:53;7.40;;;6.28;;
62258;SDS011;48241;48.824;10.102;2023-08-20T06:59:18;7.78;;;6.95;;
62258;SDS011;48241;48.824;10.102;2023-08-20T07:01:44;10.07;;;7.63;;
62258;SDS011;48241;48.824;10.102;2023-08-20T07:04:09;8.18;;;6.65;;
62258;SDS011;48241;48.824;10.102;2023-08-20T07:06:41;8.88;;;8.07;;
62258;SDS011;48241;48.824;10.102;2023-08-20T07:09:18;9.18;;;8.20;;
62258;SDS011;48241;48.824;10.102;2023-08-20T07:11:44;9.52;;;8.73;;
62258;SDS011;48241;48.824;10.102;2023-08-20T07:14:09;9.82;;;8.85;;
62258;SDS011;48241;48.824;10.102;2023-08-20T07:16:38;10.30;;;9.02;;
62258;SDS011;48241;48.824;10.102;2023-08-20T07:19:03;11.52;;;8.82;;
62258;SDS011;48241;48.824;10.102;2023-08-20T07:21:29;15.80;;;9.10;;
62258;SDS011;48241;48.824;10.102;2023-08-20T07:23:57;8.43;;;7.55;;
62258;SDS011;48241;48.824;10.102;2023-08-20T07:26:23;10.15;;;8.50;;
62258;SDS011;48241;48.824;10.102;2023-08-20T07:28:55;8.50;;;7.60;;
62258;SDS011;48241;48.824;10.102;2023-08-20T07:31:30;7.80;;;7.00;;
62258;SDS011;48241;48.824;10.102;2023-08-20T07:33:58;7.78;;;6.50;;
62258;SDS011;48241;48.824;10.102;2023-08-20T07:36:25;7.40;;;6.70;;
62258;SDS011;48241;48.824;10.102;2023-08-20T07:39:00;7.60;;;6.72;;
62258;SDS011;48241;48.824;10.102;2023-08-20T07:41:26;6.50;;;5.72;;
62258;SDS011;48241;48.824;10.102;2023-08-20T07:43:52;11.13;;;6.85;;
62258;SDS011;48241;48.824;10.102;2023-08-20T07:46:18;8.48;;;6.45;;
62258;SDS011;48241;48.824;10.102;2023-08-20T07:48:43;6.18;;;5.50;;
62258;SDS011;48241;48.824;10.102;2023-08-20T07:51:09;6.13;;;5.53;;
62258;SDS011;48241;48.824;10.102;2023-08-20T07:53:35;6.85;;;5.35;;
62258;SDS011;48241;48.824;10.102;2023-08-20T07:56:00;6.30;;;5.57;;
62258;SDS011;48241;48.824;10.102;2023-08-20T07:58:26;5.85;;;5.25;;
62258;SDS011;48241;48.824;10.102;2023-08-20T08:00:53;7.18;;;6.18;;
62258;SDS011;48241;48.824;10.102;2023-08-20T08:03:18;5.90;;;5.35;;
62258;SDS011;48241;48.824;10.102;2023-08-20T08:05:47;6.53;;;5.82;;
62258;SDS011;48241;48.824;10.102;2023-08-20T08:08:15;7.60;;;6.15;;
62258;SDS011;48241;48.824;10.102;2023-08-20T08:10:41;6.05;;;5.40;;
62258;SDS011;48241;48.824;10.102;2023-08-20T08:13:09;6.78;;;6.07;;
62258;SDS011;48241;48.824;10.102;2023-08-20T08:15:35;6.03;;;5.43;;
62258;SDS011;48241;48.824;10.102;2023-08-20T08:18:00;6.18;;;5.65;;
62258;SDS011;48241;48.824;10.102;2023-08-20T08:20:26;6.70;;;5.32;;
62258;SDS011;48241;48.824;10.102;2023-08-20T08:22:52;6.55;;;5.45;;
62258;SDS011;48241;48.824;10.102;2023-08-20T08:25:17;6.78;;;5.55;;
62258;SDS011;48241;48.824;10.102;2023-08-20T08:27:44;6.85;;;5.82;;
62258;SDS011;48241;48.824;10.102;2023-08-20T08:30:10;6.78;;;5.80;;
62258;SDS011;48241;48.824;10.102;2023-08-20T08:32:36;6.97;;;5.65;;
62258;SDS011;48241;48.824;10.102;2023-08-20T08:35:02;7.93;;;6.43;;
62258;SDS011;48241;48.824;10.102;2023-08-20T08:37:27;8.85;;;6.43;;
62258;SDS011;48241;48.824;10.102;2023-08-20T08:39:53;7.97;;;5.78;;
62258;SDS011;48241;48.824;10.102;2023-08-20T08:42:18;6.60;;;5.80;;
62258;SDS011;48241;48.824;10.102;2023-08-20T08:44:47;7.25;;;5.82;;
62258;SDS011;48241;48.824;10.102;2023-08-20T08:47:13;7.18;;;6.00;;
62258;SDS011;48241;48.824;10.102;2023-08-20T08:49:39;6.53;;;5.93;;
62258;SDS011;48241;48.824;10.102;2023-08-20T08:52:05;6.78;;;6.15;;
62258;SDS011;48241;48.824;10.102;2023-08-20T08:54:32;6.00;;;5.40;;
62258;SDS011;48241;48.824;10.102;2023-08-20T08:56:58;7.70;;;5.72;;
62258;SDS011;48241;48.824;10.102;2023-08-20T08:59:24;6.90;;;5.82;;
62258;SDS011;48241;48.824;10.102;2023-08-20T09:01:49;8.10;;;5.78;;
62258;SDS011;48241;48.824;10.102;2023-08-20T09:04:15;7.78;;;6.32;;
62258;SDS011;48241;48.824;10.102;2023-08-20T09:06:44;6.82;;;6.22;;
62258;SDS011;48241;48.824;10.102;2023-08-20T09:09:14;7.70;;;7.00;;
62258;SDS011;48241;48.824;10.102;2023-08-20T09:11:41;7.00;;;5.80;;
62258;SDS011;48241;48.824;10.102;2023-08-20T09:14:06;7.40;;;6.03;;
62258;SDS011;48241;48.824;10.102;2023-08-20T09:16:32;10.05;;;6.03;;
62258;SDS011;48241;48.824;10.102;2023-08-20T09:19:01;7.50;;;6.22;;
62258;SDS011;48241;48.824;10.102;2023-08-20T09:21:28;6.70;;;6.00;;
62258;SDS011;48241;48.824;10.102;2023-08-20T09:23:54;8.95;;;5.88;;
62258;SDS011;48241;48.824;10.102;2023-08-20T09:26:21;7.47;;;5.93;;
62258;SDS011;48241;48.824;10.102;2023-08-20T09:28:47;7.00;;;5.88;;
62258;SDS011;48241;48.824;10.102;2023-08-20T09:31:13;8.82;;;5.82;;
62258;SDS011;48241;48.824;10.102;2023-08-20T09:33:54;7.30;;;5.57;;
62258;SDS011;48241;48.824;10.102;2023-08-20T09:36:29;6.35;;;5.75;;
62258;SDS011;48241;48.824;10.102;2023-08-20T09:38:59;7.45;;;5.80;;
62258;SDS011;48241;48.824;10.102;2023-08-20T09:41:28;7.80;;;5.57;;
62258;SDS011;48241;48.824;10.102;2023-08-20T09:43:56;5.78;;;5.25;;
62258;SDS011;48241;48.824;10.102;2023-08-20T09:46:26;6.40;;;5.57;;
62258;SDS011;48241;48.824;10.102;2023-08-20T09:48:56;7.50;;;5.78;;
62258;SDS011;48241;48.824;10.102;2023-08-20T09:51:25;6.50;;;5.25;;
62258;SDS011;48241;48.824;10.102;2023-08-20T09:53:56;6.55;;;5.45;;
62258;SDS011;48241;48.824;10.102;2023-08-20T09:56:34;6.63;;;5.85;;
62258;SDS011;48241;48.824;10.102;2023-08-20T09:59:03;7.32;;;5.20;;
62258;SDS011;48241;48.824;10.102;2023-08-20T10:01:29;8.25;;;5.65;;
62258;SDS011;48241;48.824;10.102;2023-08-20T10:03:55;6.53;;;5.38;;
62258;SDS011;48241;48.824;10.102;2023-08-20T10:06:22;5.70;;;5.20;;
62258;SDS011;48241;48.824;10.102;2023-08-20T10:08:49;6.25;;;5.57;;
62258;SDS011;48241;48.824;10.102;2023-08-20T10:11:16;7.10;;;5.63;;
62258;SDS011;48241;48.824;10.102;2023-08-20T10:13:42;7.50;;;5.40;;
62258;SDS011;48241;48.824;10.102;2023-08-20T10:16:08;9.45;;;5.38;;
62258;SDS011;48241;48.824;10.102;2023-08-20T10:18:34;5.95;;;5.00;;
62258;SDS011;48241;48.824;10.102;2023-08-20T10:21:00;5.57;;;4.93;;
62258;SDS011;48241;48.824;10.102;2023-08-20T10:23:26;6.45;;;4.90;;
62258;SDS011;48241;48.824;10.102;2023-08-20T10:25:52;8.05;;;5.40;;
62258;SDS011;48241;48.824;10.102;2023-08-20T10:28:24;6.75;;;5.35;;
62258;SDS011;48241;48.824;10.102;2023-08-20T10:31:04;8.18;;;5.68;;
62258;SDS011;48241;48.824;10.102;2023-08-20T10:38:49;9.35;;;5.95;;
62258;SDS011;48241;48.824;10.102;2023-08-20T10:41:15;8.60;;;6.20;;
62258;SDS011;48241;48.824;10.102;2023-08-20T10:43:48;7.65;;;5.88;;
62258;SDS011;48241;48.824;10.102;2023-08-20T10:46:21;10.13;;;6.07;;
62258;SDS011;48241;48.824;10.102;2023-08-20T10:48:52;6.60;;;6.00;;
62258;SDS011;48241;48.824;10.102;2023-08-20T10:59:14;7.47;;;5.63;;
62258;SDS011;48241;48.824;10.102;2023-08-20T11:01:45;8.15;;;6.07;;
62258;SDS011;48241;48.824;10.102;2023-08-20T11:04:11;7.22;;;6.00;;
62258;SDS011;48241;48.824;10.102;2023-08-20T11:06:41;7.20;;;6.32;;
62258;SDS011;48241;48.824;10.102;2023-08-20T11:09:10;8.85;;;5.93;;
62258;SDS011;48241;48.824;10.102;2023-08-20T11:11:37;6.80;;;5.75;;
62258;SDS011;48241;48.824;10.102;2023-08-20T11:14:07;8.38;;;5.90;;
62258;SDS011;48241;48.824;10.102;2023-08-20T11:16:43;10.05;;;5.90;;
62258;SDS011;48241;48.824;10.102;2023-08-20T11:19:12;8.77;;;6.20;;
62258;SDS011;48241;48.824;10.102;2023-08-20T11:21:41;9.88;;;6.38;;
62258;SDS011;48241;48.824;10.102;2023-08-20T11:24:10;6.60;;;5.88;;
62258;SDS011;48241;48.824;10.102;2023-08-20T11:26:40;9.63;;;6.22;;
62258;SDS011;48241;48.824;10.102;2023-08-20T11:29:10;6.70;;;6.00;;
62258;SDS011;48241;48.824;10.102;2023-08-20T11:31:46;9.85;;;6.43;;
62258;SDS011;48241;48.824;10.102;2023-08-20T11:34:12;9.05;;;5.90;;
62258;SDS011;48241;48.824;10.102;2023-08-20T11:36:46;6.95;;;5.45;;
62258;SDS011;48241;48.824;10.102;2023-08-20T11:39:12;10.02;;;5.68;;
62258;SDS011;48241;48.824;10.102;2023-08-20T11:41:38;8.50;;;6.45;;
62258;SDS011;48241;48.824;10.102;2023-08-20T11:44:05;8.90;;;6.28;;
62258;SDS011;48241;48.824;10.102;2023-08-20T11:46:32;7.50;;;6.70;;
62258;SDS011;48241;48.824;10.102;2023-08-20T11:49:02;7.53;;;5.68;;
62258;SDS011;48241;48.824;10.102;2023-08-20T11:51:28;7.07;;;6.05;;
62258;SDS011;48241;48.824;10.102;2023-08-20T11:54:13;7.78;;;6.00;;
62258;SDS011;48241;48.824;10.102;2023-08-20T11:56:43;7.20;;;5.82;;
62258;SDS011;48241;48.824;10.102;2023-08-20T11:59:13;6.55;;;5.90;;
62258;SDS011;48241;48.824;10.102;2023-08-20T12:01:43;6.97;;;5.60;;
62258;SDS011;48241;48.824;10.102;2023-08-20T12:04:14;7.28;;;5.63;;
62258;SDS011;48241;48.824;10.102;2023-08-20T12:06:39;7.55;;;5.65;;
62258;SDS011;48241;48.824;10.102;2023-08-20T12:09:22;7.78;;;5.50;;
62258;SDS011;48241;48.824;10.102;2023-08-20T12:11:49;7.38;;;5.47;;
62258;SDS011;48241;48.824;10.102;2023-08-20T12:16:47;7.55;;;5.63;;
62258;SDS011;48241;48.824;10.102;2023-08-20T12:19:13;9.18;;;6.38;;
62258;SDS011;48241;48.824;10.102;2023-08-20T12:21:38;13.88;;;7.45;;
62258;SDS011;48241;48.824;10.102;2023-08-20T12:24:05;8.43;;;6.82;;
62258;SDS011;48241;48.824;10.102;2023-08-20T12:26:31;6.15;;;5.32;;
62258;SDS011;48241;48.824;10.102;2023-08-20T12:28:57;7.70;;;5.78;;
62258;SDS011;48241;48.824;10.102;2023-08-20T12:31:25;11.27;;;5.30;;
62258;SDS011;48241;48.824;10.102;2023-08-20T12:33:51;11.70;;;5.75;;
62258;SDS011;48241;48.824;10.102;2023-08-20T12:36:16;7.68;;;5.82;;
62258;SDS011;48241;48.824;10.102;2023-08-20T12:38:45;6.43;;;5.57;;
62258;SDS011;48241;48.824;10.102;2023-08-20T12:41:10;9.63;;;5.55;;
62258;SDS011;48241;48.824;10.102;2023-08-20T12:43:36;8.18;;;5.50;;
62258;SDS011;48241;48.824;10.102;2023-08-20T12:46:04;7.30;;;5.40;;
62258;SDS011;48241;48.824;10.102;2023-08-20T12:48:33;8.05;;;5.75;;
62258;SDS011;48241;48.824;10.102;2023-08-20T12:50:58;6.65;;;5.20;;
62258;SDS011;48241;48.824;10.102;2023-08-20T12:53:24;7.25;;;5.13;;
62258;SDS011;48241;48.824;10.102;2023-08-20T12:55:49;7.40;;;5.53;;
62258;SDS011;48241;48.824;10.102;2023-08-20T12:58:15;6.75;;;4.97;;
62258;SDS011;48241;48.824;10.102;2023-08-20T13:00:41;6.10;;;5.50;;
62258;SDS011;48241;48.824;10.102;2023-08-20T13:03:06;6.88;;;5.30;;
62258;SDS011;48241;48.824;10.102;2023-08-20T13:05:32;7.45;;;4.88;;
62258;SDS011;48241;48.824;10.102;2023-08-20T13:08:04;6.03;;;5.00;;
62258;SDS011;48241;48.824;10.102;2023-08-20T13:10:30;5.80;;;5.20;;
62258;SDS011;48241;48.824;10.102;2023-08-20T13:12:56;10.65;;;5.30;;
62258;SDS011;48241;48.824;10.102;2023-08-20T13:15:25;7.43;;;5.70;;
62258;SDS011;48241;48.824;10.102;2023-08-20T13:17:51;8.60;;;5.07;;
62258;SDS011;48241;48.824;10.102;2023-08-20T13:20:20;8.75;;;5.25;;
62258;SDS011;48241;48.824;10.102;2023-08-20T13:22:48;7.47;;;4.80;;
62258;SDS011;48241;48.824;10.102;2023-08-20T13:25:14;6.75;;;5.07;;
62258;SDS011;48241;48.824;10.102;2023-08-20T13:27:40;8.52;;;5.25;;
62258;SDS011;48241;48.824;10.102;2023-08-20T13:30:06;7.15;;;5.30;;
62258;SDS011;48241;48.824;10.102;2023-08-20T13:32:33;6.28;;;5.20;;
62258;SDS011;48241;48.824;10.102;2023-08-20T13:35:02;7.60;;;5.22;;
62258;SDS011;48241;48.824;10.102;2023-08-20T13:37:37;9.23;;;5.30;;
62258;SDS011;48241;48.824;10.102;2023-08-20T13:40:03;9.57;;;5.10;;
62258;SDS011;48241;48.824;10.102;2023-08-20T13:42:29;9.43;;;5.32;;
62258;SDS011;48241;48.824;10.102;2023-08-20T13:44:55;9.15;;;5.43;;
62258;SDS011;48241;48.824;10.102;2023-08-20T13:47:20;8.57;;;5.60;;
62258;SDS011;48241;48.824;10.102;2023-08-20T13:49:52;7.88;;;5.25;;
62258;SDS011;48241;48.824;10.102;2023-08-20T13:52:21;8.95;;;5.30;;
62258;SDS011;48241;48.824;10.102;2023-08-20T13:54:46;7.80;;;5.20;;
62258;SDS011;48241;48.824;10.102;2023-08-20T13:57:12;5.53;;;4.80;;
62258;SDS011;48241;48.824;10.102;2023-08-20T13:59:38;6.50;;;5.10;;
62258;SDS011;48241;48.824;10.102;2023-08-20T14:02:04;8.88;;;5.10;;
62258;SDS011;48241;48.824;10.102;2023-08-20T14:04:32;8.57;;;5.40;;
62258;SDS011;48241;48.824;10.102;2023-08-20T14:06:58;8.85;;;5.20;;
62258;SDS011;48241;48.824;10.102;2023-08-20T14:09:26;8.40;;;5.25;;
62258;SDS011;48241;48.824;10.102;2023-08-20T14:11:58;8.63;;;5.35;;
62258;SDS011;48241;48.824;10.102;2023-08-20T14:14:23;8.15;;;5.25;;
62258;SDS011;48241;48.824;10.102;2023-08-20T14:16:49;8.05;;;5.18;;
62258;SDS011;48241;48.824;10.102;2023-08-20T14:19:18;8.75;;;5.43;;
62258;SDS011;48241;48.824;10.102;2023-08-20T14:21:43;8.40;;;5.18;;
62258;SDS011;48241;48.824;10.102;2023-08-20T14:24:09;8.35;;;5.07;;
62258;SDS011;48241;48.824;10.102;2023-08-20T14:26:37;8.63;;;5.45;;
62258;SDS011;48241;48.824;10.102;2023-08-20T14:29:03;9.27;;;5.30;;
62258;SDS011;48241;48.824;10.102;2023-08-20T14:31:28;6.70;;;5.25;;
62258;SDS011;48241;48.824;10.102;2023-08-20T14:33:55;8.23;;;5.30;;
62258;SDS011;48241;48.824;10.102;2023-08-20T14:36:21;7.90;;;5.40;;
62258;SDS011;48241;48.824;10.102;2023-08-20T14:38:46;8.07;;;5.32;;
62258;SDS011;48241;48.824;10.102;2023-08-20T14:41:21;7.32;;;5.70;;
62258;SDS011;48241;48.824;10.102;2023-08-20T14:43:49;6.65;;;5.43;;
62258;SDS011;48241;48.824;10.102;2023-08-20T14:46:15;7.93;;;5.45;;
62258;SDS011;48241;48.824;10.102;2023-08-20T14:48:40;7.65;;;5.38;;